Time,TemperatureF,DewpointF,PressureIn,WindDirection,WindDirectionDegrees,WindSpeedMPH,WindSpeedGustMPH,Humidity,HourlyPrecipIn,Conditions,Clouds,dailyrainin,SoftwareType,DateUTC
2013-10-01 08:35:00,60.4,56.2,29.84,South,190,0.0,1.0,86,0.00,,,0.00,Wunderground v.1.15,2013-10-01 12:35:00,
2013-10-01 08:40:00,60.4,56.2,29.84,SE,145,1.0,1.0,86,0.00,,,0.00,Wunderground v.1.15,2013-10-01 12:40:00,
2013-10-01 08:45:00,60.4,56.5,29.84,East,101,1.0,3.0,87,0.00,,,0.00,Wunderground v.1.15,2013-10-01 12:45:00,
2013-10-01 08:50:00,60.6,56.7,29.84,ESE,110,1.0,1.0,87,0.00,,,0.00,Wunderground v.1.15,2013-10-01 12:50:00,
2013-10-01 09:00:00,61.0,56.8,29.83,ESE,123,1.0,1.0,86,0.00,,,0.00,Wunderground v.1.15,2013-10-01 13:00:00,
2013-10-01 09:05:00,61.3,57.1,29.83,SE,134,1.0,1.0,86,0.00,,,0.00,Wunderground v.1.15,2013-10-01 13:05:00,
2013-10-01 09:10:00,61.6,57.4,29.83,ESE,113,1.0,1.0,86,0.00,,,0.00,Wunderground v.1.15,2013-10-01 13:10:00,
2013-10-01 09:20:00,62.0,57.8,29.83,SSW,194,1.0,1.0,86,0.00,,,0.00,Wunderground v.1.15,2013-10-01 13:20:00,
2013-10-01 09:25:00,62.1,57.9,29.83,South,176,1.0,1.0,86,0.00,,,0.00,Wunderground v.1.15,2013-10-01 13:25:00,
2013-10-01 09:40:00,62.1,57.9,29.83,SSW,205,2.0,10.0,86,0.00,,,0.00,Wunderground v.1.15,2013-10-01 13:40:00,
2013-10-01 09:50:00,62.5,58.3,29.82,East,99,1.0,1.0,86,0.00,,,0.00,Wunderground v.1.15,2013-10-01 13:50:00,
2013-10-01 10:05:00,63.0,58.7,29.81,SSW,211,2.0,8.0,86,0.00,,,0.00,Wunderground v.1.15,2013-10-01 14:05:00,
2013-10-01 10:10:00,63.2,58.9,29.81,SE,141,2.0,2.0,86,0.00,,,0.00,Wunderground v.1.15,2013-10-01 14:10:00,
2013-10-01 10:25:00,63.8,59.2,29.82,SSW,198,2.0,5.0,85,0.00,,,0.00,Wunderground v.1.15,2013-10-01 14:25:00,
2013-10-01 10:30:00,64.0,59.7,29.82,SSW,211,2.0,2.0,86,0.00,,,0.00,Wunderground v.1.15,2013-10-01 14:30:00,
2013-10-01 10:35:00,64.3,59.7,29.82,SSW,195,2.0,2.0,85,0.00,,,0.00,Wunderground v.1.15,2013-10-01 14:35:00,
2013-10-01 10:45:00,64.6,60.0,29.82,South,191,2.0,2.0,85,0.00,,,0.00,Wunderground v.1.15,2013-10-01 14:45:00,
2013-10-01 10:50:00,64.8,60.2,29.82,SSW,213,2.0,2.0,85,0.00,,,0.00,Wunderground v.1.15,2013-10-01 14:50:00,
2013-10-01 11:10:00,66.0,61.0,29.81,SSW,200,2.0,2.0,84,0.00,,,0.00,Wunderground v.1.15,2013-10-01 15:10:00,
2013-10-01 11:20:00,66.9,61.6,29.80,SSW,204,2.0,2.0,83,0.00,,,0.00,Wunderground v.1.15,2013-10-01 15:20:00,
2013-10-01 11:30:00,67.2,61.5,29.80,South,180,4.0,6.0,82,0.00,,,0.00,Wunderground v.1.15,2013-10-01 15:30:00,
2013-10-01 11:35:00,66.9,61.6,29.80,SSE,148,3.0,6.0,83,0.00,,,0.00,Wunderground v.1.15,2013-10-01 15:35:00,
2013-10-01 11:45:00,67.6,61.9,29.79,SSE,155,2.0,4.0,82,0.00,,,0.00,Wunderground v.1.15,2013-10-01 15:45:00,
2013-10-01 12:00:00,68.1,62.4,29.79,South,182,3.0,4.0,82,0.00,,,0.00,Wunderground v.1.15,2013-10-01 16:00:00,
2013-10-01 12:05:00,68.3,62.2,29.79,SE,130,3.0,4.0,81,0.00,,,0.00,Wunderground v.1.15,2013-10-01 16:05:00,
2013-10-01 12:10:00,68.5,62.4,29.78,SSW,201,3.0,6.0,81,0.00,,,0.00,Wunderground v.1.15,2013-10-01 16:10:00,
2013-10-01 15:30:00,72.5,63.0,29.75,SW,221,4.0,4.0,72,0.00,,,0.00,Wunderground v.1.15,2013-10-01 19:30:00,
2013-10-01 15:35:00,72.5,63.4,29.75,SW,221,4.0,4.0,73,0.00,,,0.00,Wunderground v.1.15,2013-10-01 19:35:00,
2013-10-01 15:50:00,70.8,63.6,29.75,SW,221,3.0,3.0,78,0.00,,,0.00,Wunderground v.1.15,2013-10-01 19:50:00,
2013-10-01 15:55:00,70.3,63.8,29.75,SW,222,3.0,3.0,80,0.00,,,0.00,Wunderground v.1.15,2013-10-01 19:55:00,
2013-10-01 16:05:00,70.0,64.2,29.75,SW,233,3.0,4.0,82,0.00,,,0.00,Wunderground v.1.15,2013-10-01 20:05:00,
2013-10-01 16:15:00,70.3,63.8,29.75,SW,232,5.0,6.0,80,0.00,,,0.00,Wunderground v.1.15,2013-10-01 20:15:00,